createdAt,value
2022-09-26T00:02:20.332Z,17.48
2022-09-26T00:07:25.363Z,18.35
2022-09-26T00:12:28.943Z,16.50
2022-09-26T00:17:32.414Z,18.65
2022-09-26T00:22:37.297Z,16.63
2022-09-26T00:27:40.583Z,18.85
2022-09-26T00:32:43.871Z,19.48
2022-09-26T00:37:48.616Z,18.80
2022-09-26T00:42:51.877Z,21.65
2022-09-26T00:48:01.183Z,18.63
2022-09-26T00:53:11.034Z,19.40
2022-09-26T00:58:17.918Z,18.17
2022-09-26T01:03:22.005Z,18.42
2022-09-26T01:08:33.936Z,19.25
2022-09-26T01:13:39.135Z,18.25
2022-09-26T01:18:43.182Z,17.98
2022-09-26T01:24:27.534Z,17.65
2022-09-26T01:34:59.110Z,17.20
2022-09-26T01:40:11.081Z,18.70
2022-09-26T01:45:19.152Z,17.20
2022-09-26T01:50:28.858Z,17.85
2022-09-26T01:55:38.073Z,18.17
2022-09-26T02:00:44.094Z,17.85
2022-09-26T02:05:53.732Z,18.58
2022-09-26T02:11:02.260Z,15.55
2022-09-26T02:16:12.236Z,17.13
2022-09-26T02:21:20.337Z,18.17
2022-09-26T02:26:25.075Z,17.73
2022-09-26T02:31:33.078Z,20.27
2022-09-26T02:36:38.307Z,17.90
2022-09-26T02:41:49.406Z,18.92
2022-09-26T02:47:15.077Z,17.02
2022-09-26T02:52:30.576Z,18.38
2022-09-26T02:57:41.634Z,20.10
2022-09-26T03:02:51.611Z,21.27
2022-09-26T03:08:02.120Z,17.40
2022-09-26T03:13:09.368Z,19.17
2022-09-26T03:18:17.900Z,19.20
2022-09-26T03:23:24.329Z,16.98
2022-09-26T03:28:28.225Z,17.23
2022-09-26T03:33:31.663Z,15.35
2022-09-26T03:38:36.692Z,16.90
2022-09-26T03:43:43.785Z,15.98
2022-09-26T03:48:47.099Z,16.55
2022-09-26T03:53:51.714Z,17.90
2022-09-26T03:58:55.153Z,17.48
2022-09-26T04:03:58.706Z,17.83
2022-09-26T04:09:04.367Z,16.48
2022-09-26T04:14:07.683Z,13.50
2022-09-26T04:19:12.699Z,14.40
2022-09-26T04:24:18.044Z,15.10
2022-09-26T04:29:21.481Z,14.48
2022-09-26T04:34:27.220Z,15.02
2022-09-26T04:39:33.181Z,16.15
2022-09-26T04:44:36.461Z,17.27
2022-09-26T04:49:39.781Z,14.43
2022-09-26T04:54:44.757Z,14.80
2022-09-26T04:59:48.114Z,21.42
2022-09-26T05:04:51.380Z,16.27
2022-09-26T05:09:56.900Z,15.80
2022-09-26T05:15:01.817Z,17.33
2022-09-26T05:20:08.767Z,14.07
2022-09-26T05:25:31.706Z,14.38
2022-09-26T05:30:36.233Z,20.52
2022-09-26T05:35:39.537Z,15.02
2022-09-26T05:40:59.337Z,16.25
2022-09-26T05:46:05.094Z,16.77
2022-09-26T05:51:12.582Z,14.98
2022-09-26T05:56:19.729Z,18.85
2022-09-26T06:01:24.411Z,26.00
2022-09-26T06:06:28.071Z,16.63
2022-09-26T06:11:32.745Z,14.10
2022-09-26T06:16:36.420Z,14.95
2022-09-26T06:21:40.316Z,16.17
2022-09-26T06:26:44.984Z,18.65
2022-09-26T06:31:49.428Z,16.13
2022-09-26T06:36:52.934Z,17.88
2022-09-26T06:41:57.596Z,17.70
2022-09-26T06:47:01.705Z,21.98
2022-09-26T06:52:05.606Z,15.85
2022-09-26T06:57:15.358Z,13.43
2022-09-26T07:02:19.350Z,13.25
2022-09-26T07:07:22.749Z,15.23
2022-09-26T07:12:28.419Z,15.43
2022-09-26T07:17:31.709Z,20.15
2022-09-26T07:22:35.391Z,17.98
2022-09-26T07:27:40.981Z,18.88
2022-09-26T07:32:46.190Z,21.83
2022-09-26T07:37:52.842Z,26.60
2022-09-26T07:43:18.976Z,25.17
2022-09-26T07:48:40.902Z,25.35
2022-09-26T07:53:44.269Z,25.60
2022-09-26T07:58:48.951Z,22.63
2022-09-26T08:03:58.251Z,20.75
2022-09-26T08:09:01.847Z,23.90
2022-09-26T08:14:06.731Z,18.10
2022-09-26T08:19:17.238Z,23.75
2022-09-26T08:24:20.990Z,20.38
2022-09-26T08:29:25.865Z,21.35
2022-09-26T08:34:29.167Z,21.95
2022-09-26T08:39:33.582Z,18.92
2022-09-26T08:45:24.519Z,26.00
2022-09-26T08:50:34.881Z,19.50
2022-09-26T08:55:44.898Z,24.92
2022-09-26T09:00:57.421Z,22.85
2022-09-26T09:06:05.283Z,21.40
2022-09-26T09:11:19.085Z,22.60
2022-09-26T09:16:45.835Z,19.73
2022-09-26T09:21:59.576Z,20.80
2022-09-26T09:32:51.125Z,24.55
2022-09-26T09:37:55.346Z,22.67
2022-09-26T09:43:03.955Z,24.67
2022-09-26T09:48:12.003Z,21.05
2022-09-26T09:53:34.747Z,22.60
2022-09-26T09:58:54.621Z,21.30
2022-09-26T10:04:06.091Z,20.95
2022-09-26T10:09:35.406Z,24.42
2022-09-26T10:14:48.548Z,21.60
2022-09-26T10:19:53.333Z,19.50
2022-09-26T10:25:02.597Z,22.02
2022-09-26T10:30:21.942Z,19.77
2022-09-26T10:35:29.754Z,20.20
2022-09-26T10:40:48.954Z,21.05
2022-09-26T10:45:55.840Z,24.90
2022-09-26T10:51:01.866Z,23.20
2022-09-26T10:56:11.468Z,22.95
2022-09-26T11:01:22.922Z,31.65
2022-09-26T11:06:32.910Z,24.85
2022-09-26T11:11:39.442Z,19.90
2022-09-26T11:16:53.964Z,17.33
2022-09-26T11:22:07.978Z,21.20
2022-09-26T11:27:20.832Z,21.13
2022-09-26T11:32:30.053Z,19.40
2022-09-26T11:37:50.950Z,18.90
2022-09-26T11:43:19.984Z,19.63
2022-09-26T11:48:38.438Z,21.88
2022-09-26T11:54:13.127Z,21.63
2022-09-26T11:59:29.729Z,23.33
2022-09-26T12:05:00.046Z,22.17
2022-09-26T12:10:17.571Z,26.45
2022-09-26T12:15:27.957Z,25.92
2022-09-26T12:20:38.206Z,31.83
2022-09-26T12:26:02.326Z,21.25
2022-09-26T12:31:17.243Z,24.52
2022-09-26T12:36:40.140Z,19.08
2022-09-26T12:42:03.705Z,15.95
2022-09-26T12:47:32.229Z,16.20
2022-09-26T12:53:01.772Z,15.73
2022-09-26T12:58:23.513Z,15.20
2022-09-26T13:03:57.556Z,16.85
2022-09-26T13:09:11.330Z,15.50
2022-09-26T13:14:34.983Z,16.30
2022-09-26T13:19:44.018Z,17.35
2022-09-26T13:24:52.385Z,15.77
2022-09-26T13:30:03.249Z,11.35
2022-09-26T13:35:16.877Z,12.20
2022-09-26T13:40:34.931Z,9.77
2022-09-26T13:45:51.542Z,10.07
2022-09-26T13:51:00.851Z,6.40
2022-09-26T13:56:30.801Z,6.63
2022-09-26T14:01:35.731Z,5.97
2022-09-26T14:06:39.168Z,5.28
2022-09-26T14:11:49.221Z,7.00
2022-09-26T14:16:56.726Z,6.93
2022-09-26T14:22:02.546Z,5.82
2022-09-26T14:27:43.580Z,5.63
2022-09-26T14:32:48.288Z,5.07
2022-09-26T14:37:52.834Z,6.32
2022-09-26T14:43:00.492Z,5.53
2022-09-26T14:48:16.443Z,7.05
2022-09-26T14:53:25.176Z,4.65
2022-09-26T14:58:34.588Z,4.55
2022-09-26T15:03:39.694Z,3.88
2022-09-26T15:08:43.085Z,4.53
2022-09-26T15:13:47.647Z,6.20
2022-09-26T15:18:56.591Z,4.40
2022-09-26T15:24:00.357Z,6.55
2022-09-26T15:29:06.452Z,3.42
2022-09-26T15:34:17.201Z,3.20
2022-09-26T15:39:42.099Z,3.08
2022-09-26T15:44:49.633Z,4.60
2022-09-26T15:50:04.069Z,3.90
2022-09-26T15:55:08.714Z,3.40
2022-09-26T16:00:15.226Z,4.55
2022-09-26T16:05:22.423Z,3.22
2022-09-26T16:10:29.959Z,3.80
2022-09-26T16:15:33.462Z,3.95
2022-09-26T16:20:38.524Z,4.30
2022-09-26T16:25:58.493Z,3.72
2022-09-26T16:31:15.934Z,3.60
2022-09-26T16:36:23.507Z,3.53
2022-09-26T16:46:59.059Z,4.15
2022-09-26T16:52:28.526Z,7.60
2022-09-26T16:57:34.285Z,7.53
2022-09-26T17:02:39.142Z,14.68
2022-09-26T17:07:43.872Z,12.13
2022-09-26T17:12:50.469Z,12.18
2022-09-26T17:17:54.271Z,14.25
2022-09-26T17:23:08.024Z,14.98
2022-09-26T17:28:25.881Z,16.10
2022-09-26T17:33:30.633Z,12.98
2022-09-26T17:38:38.781Z,16.33
2022-09-26T17:43:42.763Z,19.38
2022-09-26T17:48:46.487Z,21.65
2022-09-26T17:53:52.566Z,18.85
2022-09-26T17:58:56.993Z,27.88
2022-09-26T18:04:06.333Z,25.95
2022-09-26T18:09:16.584Z,24.70
2022-09-26T18:14:20.852Z,20.15
2022-09-26T18:19:24.192Z,21.25
2022-09-26T18:24:30.868Z,19.50
2022-09-26T18:29:37.788Z,16.25
2022-09-26T18:34:42.108Z,18.85
2022-09-26T18:39:50.815Z,23.02
2022-09-26T18:45:03.609Z,30.20
2022-09-26T18:50:08.460Z,32.40
2022-09-26T18:55:37.835Z,25.25
2022-09-26T19:00:41.450Z,29.00
2022-09-26T19:05:44.961Z,25.15
2022-09-26T19:10:49.627Z,23.58
2022-09-26T19:15:53.657Z,21.02
2022-09-26T19:20:57.532Z,17.65
2022-09-26T19:26:02.828Z,18.05
2022-09-26T19:31:06.407Z,19.10
2022-09-26T19:36:11.255Z,19.65
2022-09-26T19:41:16.014Z,22.92
2022-09-26T19:46:26.094Z,21.90
2022-09-26T19:51:29.785Z,20.35
2022-09-26T19:56:35.393Z,22.55
2022-09-26T20:01:39.917Z,22.73
2022-09-26T20:06:43.749Z,23.52
2022-09-26T20:11:48.992Z,27.08
2022-09-26T20:16:57.497Z,29.65
2022-09-26T20:22:03.337Z,26.17
2022-09-26T20:27:14.201Z,28.08
2022-09-26T20:32:17.604Z,21.55
2022-09-26T20:37:23.729Z,19.90
2022-09-26T20:42:35.043Z,22.05
2022-09-26T20:47:40.429Z,27.08
2022-09-26T20:52:44.332Z,25.17
2022-09-26T20:57:50.822Z,21.58
2022-09-26T21:02:56.330Z,17.83
2022-09-26T21:08:01.195Z,17.48
2022-09-26T21:13:05.978Z,18.80
2022-09-26T21:18:23.420Z,17.25
2022-09-26T21:23:26.830Z,19.40
2022-09-26T21:28:31.533Z,20.40
2022-09-26T21:33:34.966Z,17.80
2022-09-26T21:38:38.404Z,17.70
2022-09-26T21:43:46.420Z,21.52
2022-09-26T21:48:50.117Z,22.45
2022-09-26T21:53:58.182Z,22.45
2022-09-26T21:59:05.174Z,21.17
2022-09-26T22:04:08.831Z,23.55
2022-09-26T22:09:12.081Z,19.08
2022-09-26T22:14:16.712Z,19.05
2022-09-26T22:19:20.027Z,21.13
2022-09-26T22:24:23.346Z,18.48
2022-09-26T22:29:28.354Z,20.75
2022-09-26T22:34:32.826Z,19.13
2022-09-26T22:39:36.092Z,17.35
2022-09-26T22:44:40.786Z,18.88
2022-09-26T22:49:44.148Z,23.85
2022-09-26T22:54:48.408Z,21.52
2022-09-26T22:59:53.092Z,21.25
2022-09-26T23:04:56.358Z,22.27
2022-09-26T23:10:00.274Z,20.10
2022-09-26T23:15:05.211Z,23.95
2022-09-26T23:20:09.490Z,19.98
2022-09-26T23:25:13.585Z,21.13
2022-09-26T23:30:18.243Z,19.77
2022-09-26T23:35:21.493Z,21.35
2022-09-26T23:40:24.855Z,23.30
2022-09-26T23:45:31.035Z,23.88
2022-09-26T23:50:34.376Z,21.17
2022-09-26T23:55:37.981Z,23.58
